Time;durP1;ratioP1;P1;durP2;ratioP2;P2;SDS_P1;SDS_P2;PMS_P1;PMS_P2;Temp;Humidity;BMP_temperature;BMP_pressure;BME280_temperature;BME280_humidity;BME280_pressure;Samples;Min_cycle;Max_cycle;Signal;HPM_P1;HPM_P2
2022/12/26 00:01:10;;;;;;;3.60;1.50;;;13.50;99.90;;;;;;5095131;28;20644;-59
2022/12/26 00:03:38;;;;;;;2.20;1.67;;;13.40;99.90;;;;;;5095312;28;20200;-59
2022/12/26 00:06:11;;;;;;;1.90;1.47;;;13.50;99.90;;;;;;5095188;28;20212;-60
2022/12/26 00:08:37;;;;;;;1.90;1.50;;;13.50;99.90;;;;;;5095391;28;20205;-60
2022/12/26 00:11:06;;;;;;;2.33;1.57;;;13.50;99.90;;;;;;5094905;28;20235;-61
2022/12/26 00:13:32;;;;;;;3.07;1.53;;;13.50;99.90;;;;;;5094610;28;20597;-60
2022/12/26 00:15:59;;;;;;;2.03;1.60;;;13.50;99.90;;;;;;5094768;28;20204;-60
2022/12/26 00:18:26;;;;;;;2.43;1.77;;;13.60;99.90;;;;;;5094912;28;20204;-60
2022/12/26 00:20:52;;;;;;;2.20;1.60;;;13.60;99.90;;;;;;5094678;28;20220;-61
2022/12/26 00:23:19;;;;;;;3.10;1.70;;;13.70;99.90;;;;;;5094583;28;20208;-59
2022/12/26 00:25:46;;;;;;;4.80;1.60;;;13.70;99.90;;;;;;5094246;28;20254;-59
2022/12/26 00:28:14;;;;;;;2.30;1.50;;;13.80;99.90;;;;;;5094319;28;20200;-59
2022/12/26 00:30:40;;;;;;;2.30;1.37;;;13.90;99.90;;;;;;5094638;28;20205;-61
2022/12/26 00:33:07;;;;;;;2.00;1.50;;;13.90;99.90;;;;;;5094551;28;20270;-61
2022/12/26 00:35:34;;;;;;;2.20;1.50;;;14.00;99.90;;;;;;5094819;28;20207;-61
2022/12/26 00:38:00;;;;;;;3.17;1.70;;;14.00;99.90;;;;;;5094827;28;20633;-59
2022/12/26 00:40:27;;;;;;;1.77;1.47;;;14.10;99.90;;;;;;5094591;28;20615;-60
2022/12/26 00:42:53;;;;;;;2.60;1.47;;;14.10;99.90;;;;;;5094409;28;20610;-60
2022/12/26 00:45:21;;;;;;;2.00;1.60;;;14.10;99.90;;;;;;5094607;28;20233;-60
2022/12/26 00:47:48;;;;;;;1.87;1.63;;;14.10;99.90;;;;;;5094553;28;20341;-60
2022/12/26 00:50:15;;;;;;;2.30;1.70;;;14.10;99.90;;;;;;5095045;28;20212;-60
2022/12/26 00:52:42;;;;;;;2.53;1.33;;;14.20;99.90;;;;;;5094617;28;20594;-60
2022/12/26 00:55:09;;;;;;;2.50;1.77;;;14.20;99.90;;;;;;5094027;28;20227;-60
2022/12/26 00:57:36;;;;;;;2.30;1.60;;;14.20;99.90;;;;;;5094757;28;20208;-60
2022/12/26 01:00:02;;;;;;;2.17;1.70;;;14.10;99.90;;;;;;5094544;28;20211;-59
2022/12/26 01:02:39;;;;;;;1.80;1.40;;;14.10;99.90;;;;;;5093592;28;20233;-61
2022/12/26 01:05:08;;;;;;;2.17;1.80;;;14.10;99.90;;;;;;5093983;28;20728;-60
2022/12/26 01:07:35;;;;;;;2.03;1.57;;;14.10;99.90;;;;;;5094136;28;20245;-61
2022/12/26 01:10:03;;;;;;;1.83;1.50;;;14.00;99.90;;;;;;5094377;28;20200;-61
2022/12/26 01:12:30;;;;;;;2.37;1.70;;;13.90;99.90;;;;;;5094391;28;20627;-60
2022/12/26 01:14:57;;;;;;;2.33;1.50;;;13.90;99.90;;;;;;5093867;28;20319;-59
2022/12/26 01:17:24;;;;;;;2.73;1.67;;;14.00;99.90;;;;;;5094058;28;20261;-60
2022/12/26 01:19:52;;;;;;;4.50;1.70;;;14.00;99.90;;;;;;5094273;28;20262;-59
2022/12/26 01:22:19;;;;;;;1.90;1.70;;;14.00;99.90;;;;;;5093877;28;20229;-60
2022/12/26 01:24:45;;;;;;;2.87;1.73;;;14.00;99.90;;;;;;5093814;28;20615;-60
2022/12/26 01:27:12;;;;;;;2.40;1.77;;;13.90;99.90;;;;;;5093994;28;20329;-60
2022/12/26 01:29:39;;;;;;;2.00;1.60;;;13.80;99.90;;;;;;5093874;28;20254;-60
2022/12/26 01:32:06;;;;;;;2.53;1.50;;;13.80;99.90;;;;;;5094010;28;20236;-61
2022/12/26 01:34:33;;;;;;;2.33;1.70;;;13.70;99.90;;;;;;5093306;28;20250;-61
2022/12/26 01:37:01;;;;;;;2.87;1.63;;;13.60;99.90;;;;;;5093283;28;20204;-61
2022/12/26 01:39:27;;;;;;;2.20;1.70;;;13.60;99.90;;;;;;5093393;28;20238;-60
2022/12/26 01:41:54;;;;;;;2.17;1.37;;;13.60;99.90;;;;;;5093104;28;20635;-61
2022/12/26 01:44:55;;;;;;;2.10;1.70;;;13.50;99.90;;;;;;5093570;28;20200;-61
2022/12/26 01:47:25;;;;;;;1.63;1.50;;;13.50;99.90;;;;;;5093160;28;20252;-61
2022/12/26 01:49:54;;;;;;;3.57;1.67;;;13.60;99.90;;;;;;5093395;28;20200;-60
2022/12/26 01:52:29;;;;;;;1.80;1.43;;;13.60;99.90;;;;;;5093566;28;20228;-61
2022/12/26 01:54:56;;;;;;;1.97;1.60;;;13.60;99.90;;;;;;5093186;28;20695;-61
2022/12/26 01:57:27;;;;;;;2.37;1.73;;;13.50;99.90;;;;;;5093326;28;20208;-60
2022/12/26 01:59:56;;;;;;;2.00;1.47;;;13.60;99.90;;;;;;5093588;28;20212;-61
2022/12/26 02:02:26;;;;;;;2.60;1.80;;;13.50;99.90;;;;;;5092930;28;20306;-60
2022/12/26 02:07:44;;;;;;;1.83;1.40;;;13.60;99.90;;;;;;5092844;28;20249;-60
2022/12/26 02:10:15;;;;;;;2.57;1.80;;;13.60;99.90;;;;;;5092498;28;20230;-60
2022/12/26 02:12:42;;;;;;;1.97;1.53;;;13.50;99.90;;;;;;5092453;28;20732;-60
2022/12/26 02:15:12;;;;;;;2.03;1.60;;;13.60;99.90;;;;;;5092237;28;20220;-60
2022/12/26 02:17:40;;;;;;;2.10;1.77;;;13.70;99.90;;;;;;5092939;28;20208;-61
2022/12/26 02:20:17;;;;;;;1.70;1.50;;;13.80;99.90;;;;;;5092019;28;20664;-60
2022/12/26 02:23:19;;;;;;;2.10;1.83;;;13.90;99.90;;;;;;5092400;28;20269;-60
2022/12/26 02:26:30;;;;;;;1.80;1.43;;;14.00;99.90;;;;;;5048115;28;20253;-61
2022/12/26 02:29:23;;;;;;;2.30;1.50;;;14.00;99.90;;;;;;5092435;28;20207;-60
2022/12/26 02:31:58;;;;;;;1.60;1.50;;;14.10;99.90;;;;;;5092232;28;20228;-60
2022/12/26 02:34:34;;;;;;;3.93;1.70;;;14.10;99.90;;;;;;5092351;28;20223;-60
2022/12/26 02:37:14;;;;;;;1.73;1.57;;;13.90;99.90;;;;;;5092418;28;20207;-60
2022/12/26 02:40:00;;;;;;;3.07;1.43;;;13.90;99.90;;;;;;5092573;28;20208;-61
2022/12/26 02:42:36;;;;;;;2.03;1.70;;;14.00;99.90;;;;;;5092350;28;20228;-60
2022/12/26 02:48:00;;;;;;;2.67;1.60;;;14.10;99.90;;;;;;5092124;28;20202;-60
2022/12/26 03:13:21;;;;;;;1.77;1.60;;;14.30;99.90;;;;;;5091995;28;20207;-61
2022/12/26 03:18:43;;;;;;;2.80;1.70;;;14.30;99.90;;;;;;5092017;28;20210;-61
2022/12/26 03:21:14;;;;;;;2.37;1.80;;;14.30;99.90;;;;;;5091721;28;20273;-61
2022/12/26 03:23:46;;;;;;;2.37;1.60;;;14.30;99.90;;;;;;5092014;28;20205;-61
2022/12/26 03:31:44;;;;;;;2.90;1.63;;;14.20;99.90;;;;;;5094557;28;20284;-60
2022/12/26 03:34:19;;;;;;;2.20;1.50;;;14.10;99.90;;;;;;5095678;28;20293;-60
2022/12/26 03:37:23;;;;;;;3.70;1.40;;;14.00;99.90;;;;;;5095469;28;20208;-60
2022/12/26 04:19:50;;;;;;;2.80;1.67;;;14.00;99.90;;;;;;5095040;28;20199;-61
2022/12/26 04:44:49;;;;;;;3.57;2.47;;;14.10;99.90;;;;;;5093878;28;20195;-60
2022/12/26 04:47:17;;;;;;;3.13;2.17;;;14.10;99.90;;;;;;5094445;28;20200;-60
2022/12/26 04:52:53;;;;;;;1.90;1.60;;;14.10;99.90;;;;;;5094134;28;20223;-60
2022/12/26 04:55:17;;;;;;;1.77;1.23;;;14.10;99.90;;;;;;5093541;28;20224;-60
2022/12/26 04:57:44;;;;;;;2.60;1.60;;;14.10;99.90;;;;;;5094227;28;20204;-60
2022/12/26 05:00:13;;;;;;;3.97;1.60;;;14.10;99.90;;;;;;5094013;28;20208;-60
2022/12/26 05:11:04;;;;;;;2.43;1.67;;;14.10;99.90;;;;;;5093961;28;20699;-59
2022/12/26 05:13:31;;;;;;;2.30;1.90;;;14.10;99.90;;;;;;5093572;28;20208;-60
2022/12/26 05:29:40;;;;;;;2.57;1.70;;;14.00;99.90;;;;;;5093703;28;20725;-60
2022/12/26 05:32:08;;;;;;;4.37;1.60;;;14.10;99.90;;;;;;5093350;28;20235;-60
2022/12/26 05:34:33;;;;;;;2.60;1.60;;;14.10;99.90;;;;;;5093204;28;20649;-60
2022/12/26 05:37:00;;;;;;;3.43;1.60;;;14.10;99.90;;;;;;5093300;28;20204;-60
2022/12/26 05:39:27;;;;;;;2.53;1.50;;;14.10;99.90;;;;;;5093791;28;20208;-60
2022/12/26 05:41:54;;;;;;;1.93;1.43;;;14.10;99.90;;;;;;5093117;28;20620;-61
2022/12/26 05:44:20;;;;;;;2.10;1.50;;;14.20;99.90;;;;;;5093403;28;20337;-61
2022/12/26 05:46:47;;;;;;;2.50;1.60;;;14.20;99.90;;;;;;5092947;28;20717;-61
2022/12/26 05:49:15;;;;;;;4.47;1.80;;;14.30;99.90;;;;;;5093095;28;20210;-60
2022/12/26 05:51:42;;;;;;;1.73;1.37;;;14.40;99.90;;;;;;5092877;28;20610;-60
2022/12/26 05:54:09;;;;;;;3.07;1.83;;;14.40;99.90;;;;;;5093270;28;20220;-61
2022/12/26 05:56:35;;;;;;;2.80;2.10;;;14.40;99.90;;;;;;5092719;28;20219;-61
2022/12/26 05:59:02;;;;;;;3.73;2.10;;;14.50;99.90;;;;;;5092882;28;20212;-61
2022/12/26 06:01:29;;;;;;;3.00;1.60;;;14.50;99.90;;;;;;5092684;28;20235;-60
2022/12/26 06:03:59;;;;;;;1.97;1.67;;;14.40;99.90;;;;;;5092829;28;20628;-60
2022/12/26 06:06:28;;;;;;;2.97;1.80;;;14.40;99.90;;;;;;5092572;28;20207;-61
2022/12/26 06:08:57;;;;;;;2.70;1.90;;;14.40;99.90;;;;;;5093116;28;20204;-61
2022/12/26 06:11:25;;;;;;;2.30;1.63;;;14.40;99.90;;;;;;5093115;28;20270;-60
2022/12/26 06:13:52;;;;;;;2.63;1.60;;;14.40;99.90;;;;;;5092548;28;20227;-60
2022/12/26 06:16:19;;;;;;;2.13;1.53;;;14.40;99.90;;;;;;5092596;28;20291;-60
2022/12/26 06:18:47;;;;;;;2.43;1.70;;;14.30;99.90;;;;;;5092752;28;20215;-60
2022/12/26 06:21:16;;;;;;;1.90;1.60;;;14.30;99.90;;;;;;5092644;28;20232;-61
2022/12/26 06:23:44;;;;;;;2.47;2.03;;;14.30;99.90;;;;;;5092548;28;20200;-61
2022/12/26 06:26:11;;;;;;;2.63;1.83;;;14.30;99.90;;;;;;5092299;28;20197;-61
2022/12/26 06:28:39;;;;;;;2.67;1.87;;;14.30;99.90;;;;;;5092315;28;20205;-61
2022/12/26 06:31:08;;;;;;;2.53;2.00;;;14.30;99.90;;;;;;5092442;28;20327;-60
2022/12/26 06:33:35;;;;;;;3.03;2.20;;;14.40;99.90;;;;;;5092847;28;20204;-60
2022/12/26 06:36:03;;;;;;;2.50;1.93;;;14.30;99.90;;;;;;5092045;28;20707;-61
2022/12/26 06:38:30;;;;;;;4.57;2.67;;;14.20;99.90;;;;;;5092417;28;20215;-61
2022/12/26 06:40:58;;;;;;;2.80;1.70;;;14.20;99.90;;;;;;5092692;28;20772;-61
2022/12/26 06:43:25;;;;;;;2.37;2.03;;;14.20;99.90;;;;;;5092800;28;20212;-61
2022/12/26 06:45:55;;;;;;;3.77;1.70;;;14.20;99.90;;;;;;5092626;28;20313;-61
2022/12/26 06:48:22;;;;;;;3.40;1.90;;;14.20;99.90;;;;;;5092435;28;20259;-60
2022/12/26 06:50:49;;;;;;;4.93;3.27;;;14.20;99.90;;;;;;5092109;28;20706;-61
2022/12/26 06:53:15;;;;;;;2.23;1.87;;;14.30;99.90;;;;;;5092222;28;20626;-61
2022/12/26 06:55:42;;;;;;;2.97;2.10;;;14.30;99.90;;;;;;5091686;28;20224;-67
2022/12/26 06:58:10;;;;;;;1.80;1.60;;;14.30;99.90;;;;;;5092295;28;20204;-61
2022/12/26 07:00:37;;;;;;;2.30;2.10;;;14.40;99.90;;;;;;5094695;28;20239;-60
2022/12/26 07:03:04;;;;;;;4.37;2.00;;;14.40;99.90;;;;;;5096416;28;20204;-60
2022/12/26 07:05:30;;;;;;;3.13;1.83;;;14.40;99.90;;;;;;5096199;28;20227;-61
2022/12/26 07:07:57;;;;;;;3.30;2.20;;;14.50;99.90;;;;;;5096052;28;20208;-61
2022/12/26 07:10:24;;;;;;;1.70;1.50;;;14.40;99.90;;;;;;5095900;28;20212;-61
2022/12/26 07:12:50;;;;;;;2.73;1.33;;;14.40;99.90;;;;;;5096464;28;20203;-62
2022/12/26 07:15:18;;;;;;;4.03;2.17;;;14.40;99.90;;;;;;5095953;28;20224;-61
2022/12/26 07:17:45;;;;;;;3.13;1.60;;;14.40;99.90;;;;;;5096078;28;20212;-60
2022/12/26 07:20:12;;;;;;;2.30;1.63;;;14.50;99.90;;;;;;5095925;28;20200;-61
2022/12/26 07:22:39;;;;;;;5.87;2.07;;;14.50;99.90;;;;;;5095733;28;20223;-60
2022/12/26 07:25:06;;;;;;;2.37;1.60;;;14.60;99.90;;;;;;5095647;28;20196;-60
2022/12/26 07:27:33;;;;;;;1.40;1.30;;;14.60;99.90;;;;;;5096055;28;20269;-60
2022/12/26 07:30:00;;;;;;;2.03;1.60;;;14.50;99.90;;;;;;5095886;28;20207;-60
2022/12/26 07:32:28;;;;;;;2.93;2.07;;;14.50;99.90;;;;;;5096191;28;20235;-60
2022/12/26 07:34:55;;;;;;;2.87;1.70;;;14.50;99.90;;;;;;5095562;28;20223;-60
2022/12/26 07:37:22;;;;;;;2.00;1.80;;;14.60;99.90;;;;;;5095302;28;20200;-60
2022/12/26 07:39:48;;;;;;;2.37;1.63;;;14.60;99.90;;;;;;5095742;28;20204;-60
2022/12/26 07:42:15;;;;;;;4.43;2.03;;;14.50;99.90;;;;;;5095749;28;20235;-60
2022/12/26 07:44:42;;;;;;;2.37;1.90;;;14.60;99.90;;;;;;5095555;28;20197;-60
2022/12/26 07:47:08;;;;;;;2.63;2.00;;;14.50;99.90;;;;;;5095175;28;20200;-61
2022/12/26 07:49:37;;;;;;;3.40;1.87;;;14.60;99.90;;;;;;5095208;28;20273;-61
2022/12/26 07:52:04;;;;;;;3.10;1.90;;;14.50;99.90;;;;;;5095156;28;20285;-61
2022/12/26 07:54:31;;;;;;;2.37;1.80;;;14.50;99.90;;;;;;5095384;28;20208;-61
2022/12/26 07:56:57;;;;;;;2.90;2.10;;;14.50;99.90;;;;;;5095058;28;20200;-61
2022/12/26 07:59:24;;;;;;;2.60;1.80;;;14.50;99.90;;;;;;5095006;28;20687;-61
2022/12/26 08:01:51;;;;;;;2.73;2.20;;;14.50;99.90;;;;;;5095093;28;20221;-61
2022/12/26 08:04:18;;;;;;;1.80;1.60;;;14.50;99.90;;;;;;5094972;28;20204;-61
2022/12/26 08:06:47;;;;;;;3.30;2.30;;;14.50;99.90;;;;;;5094690;28;20690;-61
2022/12/26 08:09:15;;;;;;;4.13;2.00;;;14.50;99.90;;;;;;5095389;28;20289;-60
2022/12/26 08:11:42;;;;;;;2.27;1.90;;;14.50;99.90;;;;;;5094705;28;20252;-61
2022/12/26 08:14:11;;;;;;;2.13;1.80;;;14.60;99.90;;;;;;5095057;28;20206;-61
2022/12/26 08:16:38;;;;;;;3.23;2.30;;;14.50;99.90;;;;;;5094437;28;20341;-60
2022/12/26 08:19:05;;;;;;;2.93;2.40;;;14.50;99.90;;;;;;5094649;28;20203;-60
2022/12/26 08:21:31;;;;;;;2.93;2.10;;;14.50;99.90;;;;;;5094883;28;20231;-60
2022/12/26 08:24:00;;;;;;;2.00;1.80;;;14.50;99.90;;;;;;5094809;28;20239;-60
2022/12/26 08:26:26;;;;;;;2.30;1.60;;;14.40;99.90;;;;;;5094639;28;20207;-61
2022/12/26 08:28:56;;;;;;;2.10;1.63;;;14.40;99.90;;;;;;5094499;28;20208;-60
2022/12/26 08:31:23;;;;;;;2.77;2.03;;;14.40;99.90;;;;;;5094265;28;20240;-61
2022/12/26 08:33:50;;;;;;;8.10;2.20;;;14.40;99.90;;;;;;5094600;28;20208;-61
2022/12/26 08:36:17;;;;;;;1.80;1.37;;;14.40;99.90;;;;;;5094243;28;20228;-61
2022/12/26 08:38:45;;;;;;;2.60;2.00;;;14.40;99.90;;;;;;5094456;28;20303;-60
2022/12/26 08:41:13;;;;;;;2.80;1.60;;;14.40;99.90;;;;;;5094247;28;20712;-60
2022/12/26 08:43:39;;;;;;;2.47;2.00;;;14.40;99.90;;;;;;5094243;28;20201;-61
2022/12/26 08:46:09;;;;;;;2.27;2.00;;;14.40;99.90;;;;;;5094390;28;20668;-60
2022/12/26 08:48:37;;;;;;;6.13;4.80;;;14.40;99.90;;;;;;5094342;28;20208;-60
2022/12/26 08:51:07;;;;;;;7.77;6.20;;;14.40;99.90;;;;;;5094317;28;20220;-60
2022/12/26 08:53:35;;;;;;;4.03;2.00;;;14.50;99.90;;;;;;5094178;28;20630;-60
2022/12/26 08:56:03;;;;;;;1.93;1.73;;;14.50;99.90;;;;;;5093777;28;20669;-60
2022/12/26 08:58:32;;;;;;;2.27;1.67;;;14.50;99.90;;;;;;5094028;28;20230;-60
2022/12/26 09:01:07;;;;;;;2.97;2.17;;;14.50;99.90;;;;;;5094100;28;20228;-61
2022/12/26 09:03:33;;;;;;;3.67;2.60;;;14.50;99.90;;;;;;5094104;28;20609;-61
2022/12/26 09:06:00;;;;;;;4.93;3.93;;;14.50;99.90;;;;;;5093538;28;20208;-61
2022/12/26 09:08:28;;;;;;;3.70;2.57;;;14.40;99.90;;;;;;5093781;28;20215;-61
2022/12/26 09:10:55;;;;;;;7.67;4.20;;;14.40;99.90;;;;;;5093527;28;20224;-60
2022/12/26 09:13:22;;;;;;;6.30;4.60;;;14.40;99.90;;;;;;5093838;28;20581;-61
2022/12/26 09:15:50;;;;;;;4.57;2.70;;;14.40;99.90;;;;;;5093430;28;20594;-60
2022/12/26 09:18:17;;;;;;;3.70;2.00;;;14.40;99.90;;;;;;5093591;28;20212;-61
2022/12/26 09:20:43;;;;;;;3.47;2.43;;;14.30;99.90;;;;;;5093501;28;20208;-62
2022/12/26 09:23:10;;;;;;;2.90;2.07;;;14.00;99.90;;;;;;5092773;28;20249;-62
2022/12/26 09:25:37;;;;;;;2.93;2.10;;;13.90;99.90;;;;;;5093637;28;20205;-61
2022/12/26 09:28:04;;;;;;;11.03;8.73;;;13.80;99.90;;;;;;5093322;28;20757;-62
2022/12/26 09:30:30;;;;;;;8.57;6.97;;;13.70;99.90;;;;;;5093177;28;20204;-63
2022/12/26 09:32:58;;;;;;;4.77;3.30;;;13.50;99.90;;;;;;5093383;28;20212;-63
2022/12/26 09:35:25;;;;;;;5.00;2.70;;;13.50;99.90;;;;;;5093462;28;20216;-63
2022/12/26 09:37:52;;;;;;;3.77;2.60;;;13.60;99.90;;;;;;5093243;28;20208;-65
2022/12/26 09:40:27;;;;;;;3.70;2.90;;;13.60;99.90;;;;;;5093442;28;20629;-65
2022/12/26 09:43:03;;;;;;;2.77;2.30;;;13.70;99.90;;;;;;5093135;28;20207;-65
2022/12/26 09:45:43;;;;;;;3.40;2.30;;;13.70;99.90;;;;;;5092869;28;20587;-65
2022/12/26 09:48:18;;;;;;;5.03;2.77;;;13.60;99.90;;;;;;5093347;28;20286;-64
2022/12/26 09:50:50;;;;;;;3.23;2.57;;;13.40;99.90;;;;;;5093192;28;20314;-65
2022/12/26 09:53:22;;;;;;;5.33;2.50;;;13.40;99.90;;;;;;5093289;28;20291;-65
2022/12/26 09:55:53;;;;;;;3.67;2.50;;;13.30;99.90;;;;;;5092786;28;20224;-66
2022/12/26 09:58:26;;;;;;;2.57;2.37;;;13.30;99.90;;;;;;5093166;28;20606;-64
2022/12/26 10:00:58;;;;;;;9.33;6.20;;;13.20;99.90;;;;;;5092893;28;20765;-64
2022/12/26 10:03:27;;;;;;;9.20;5.93;;;13.20;99.90;;;;;;5093322;28;20204;-65
2022/12/26 10:06:07;;;;;;;5.53;3.43;;;13.10;99.90;;;;;;5092874;28;20204;-65
2022/12/26 10:08:47;;;;;;;4.53;3.60;;;13.20;99.90;;;;;;5094259;28;20636;-66
2022/12/26 10:11:19;;;;;;;9.77;6.20;;;13.20;99.90;;;;;;5093496;28;20315;-64
2022/12/26 10:13:51;;;;;;;6.87;4.97;;;13.20;99.90;;;;;;5093265;28;20241;-65
2022/12/26 10:16:24;;;;;;;3.80;2.47;;;13.20;99.90;;;;;;5092991;28;20289;-65
2022/12/26 10:18:58;;;;;;;7.67;4.97;;;13.20;99.90;;;;;;5092981;28;20200;-66
2022/12/26 10:21:36;;;;;;;5.07;2.93;;;13.10;99.90;;;;;;5092661;28;20243;-63
2022/12/26 10:24:08;;;;;;;3.80;2.50;;;13.10;99.90;;;;;;5092258;28;20265;-65
2022/12/26 10:26:39;;;;;;;3.90;2.93;;;13.10;99.90;;;;;;5092419;28;20205;-64
2022/12/26 10:29:13;;;;;;;3.63;2.97;;;13.10;99.90;;;;;;5092576;28;20212;-65
2022/12/26 10:31:44;;;;;;;6.00;4.40;;;13.20;99.90;;;;;;5091780;28;20236;-65
2022/12/26 10:34:18;;;;;;;7.67;4.07;;;13.30;99.90;;;;;;5091423;28;20200;-65
2022/12/26 10:36:50;;;;;;;7.17;5.97;;;13.30;99.90;;;;;;5091520;28;20232;-64
2022/12/26 10:39:28;;;;;;;7.00;5.10;;;13.40;99.90;;;;;;5091496;28;20211;-65
2022/12/26 10:41:58;;;;;;;18.77;15.03;;;13.50;99.90;;;;;;5091423;28;20224;-66
2022/12/26 10:44:25;;;;;;;7.10;5.37;;;13.60;99.90;;;;;;5091627;28;20212;-65
2022/12/26 10:47:10;;;;;;;11.40;7.30;;;13.60;99.90;;;;;;5091083;28;20253;-66
2022/12/26 10:49:38;;;;;;;6.30;4.00;;;13.60;99.90;;;;;;5091422;28;20237;-66
2022/12/26 10:52:05;;;;;;;8.97;6.33;;;13.60;99.90;;;;;;5091292;28;20663;-65
2022/12/26 10:54:32;;;;;;;13.87;11.20;;;13.60;99.90;;;;;;5091183;28;20621;-65
2022/12/26 10:57:00;;;;;;;8.67;6.57;;;13.60;99.90;;;;;;5090816;28;20630;-66
2022/12/26 10:59:40;;;;;;;8.97;6.53;;;13.60;99.90;;;;;;5091605;28;20258;-69
2022/12/26 11:02:15;;;;;;;9.73;7.23;;;13.70;99.90;;;;;;5091780;28;20258;-65
2022/12/26 11:04:57;;;;;;;5.17;2.30;;;13.70;99.90;;;;;;5091046;28;20204;-64
2022/12/26 11:07:25;;;;;;;5.17;2.40;;;13.60;99.90;;;;;;5091007;28;20265;-64
2022/12/26 11:09:54;;;;;;;6.50;2.70;;;13.70;99.90;;;;;;5091296;28;20265;-64
2022/12/26 11:12:25;;;;;;;3.63;2.40;;;13.70;99.90;;;;;;5091205;28;20228;-64
2022/12/26 11:14:58;;;;;;;2.47;2.00;;;13.60;99.90;;;;;;5091073;28;20227;-63
2022/12/26 11:17:29;;;;;;;9.07;4.03;;;13.60;99.90;;;;;;5090735;28;20228;-61
2022/12/26 11:20:38;;;;;;;6.27;3.27;;;13.70;99.90;;;;;;5091256;28;20407;-62
2022/12/26 11:23:23;;;;;;;5.07;2.70;;;13.80;99.90;;;;;;5070267;28;20212;-63
2022/12/26 11:25:53;;;;;;;7.10;3.23;;;13.80;99.90;;;;;;5091421;28;20310;-63
2022/12/26 11:28:31;;;;;;;7.90;4.53;;;13.80;99.90;;;;;;5091401;28;20208;-65
2022/12/26 11:30:59;;;;;;;5.63;2.90;;;13.80;99.90;;;;;;5054826;28;1026486;-63
2022/12/26 11:33:29;;;;;;;4.90;2.60;;;13.80;99.90;;;;;;5092406;28;20204;-63
2022/12/26 11:36:18;;;;;;;4.33;2.50;;;13.80;99.90;;;;;;5092008;28;20217;-64
2022/12/26 11:38:53;;;;;;;4.30;3.20;;;13.90;99.90;;;;;;5091906;28;20205;-64
2022/12/26 11:41:35;;;;;;;5.43;3.20;;;14.00;99.90;;;;;;5091727;28;20223;-64
2022/12/26 11:44:14;;;;;;;6.90;4.43;;;14.00;99.90;;;;;;5092474;28;20254;-64
2022/12/26 11:46:44;;;;;;;6.07;3.80;;;14.10;99.90;;;;;;5094228;28;20223;-64
2022/12/26 11:49:18;;;;;;;6.77;3.47;;;14.10;99.90;;;;;;5095752;28;20242;-64
2022/12/26 11:51:48;;;;;;;4.60;2.60;;;14.20;99.90;;;;;;5095829;28;20277;-65
2022/12/26 11:54:27;;;;;;;3.80;2.20;;;14.20;99.90;;;;;;5095949;28;20208;-63
2022/12/26 11:57:10;;;;;;;2.87;2.03;;;14.10;99.90;;;;;;5094741;28;20224;-64
2022/12/26 11:59:37;;;;;;;3.23;2.50;;;14.00;99.90;;;;;;5095365;28;20690;-64
2022/12/26 12:02:18;;;;;;;2.30;1.90;;;14.00;99.90;;;;;;5094845;28;20228;-63
2022/12/26 12:04:46;;;;;;;2.30;2.03;;;14.10;99.90;;;;;;5095513;28;20206;-63
2022/12/26 12:07:26;;;;;;;4.33;2.27;;;14.10;99.90;;;;;;5095223;28;20204;-63
2022/12/26 12:10:01;;;;;;;2.40;1.70;;;14.00;99.90;;;;;;5095175;28;20304;-63
2022/12/26 12:12:37;;;;;;;3.43;2.30;;;14.00;99.90;;;;;;5095007;28;20236;-63
2022/12/26 12:15:12;;;;;;;4.90;3.07;;;14.00;99.90;;;;;;5095481;28;20211;-62
2022/12/26 12:17:48;;;;;;;10.97;6.33;;;14.00;99.90;;;;;;5094964;28;20707;-65
2022/12/26 12:20:29;;;;;;;12.17;9.93;;;14.00;99.90;;;;;;5095449;28;20260;-63
2022/12/26 12:23:28;;;;;;;3.83;2.13;;;14.00;99.90;;;;;;5095324;28;20204;-63
2022/12/26 12:26:09;;;;;;;3.70;2.10;;;14.10;99.90;;;;;;5094803;28;20208;-63
2022/12/26 12:29:01;;;;;;;4.90;3.33;;;14.20;99.90;;;;;;5095047;28;20269;-62
2022/12/26 12:31:38;;;;;;;7.63;4.93;;;14.40;99.90;;;;;;5086406;28;20296;-63
2022/12/26 12:34:16;;;;;;;5.27;3.20;;;14.50;99.90;;;;;;5094983;28;20208;-62
2022/12/26 12:36:54;;;;;;;5.27;3.20;;;14.50;99.90;;;;;;5094473;28;20573;-62
2022/12/26 12:39:34;;;;;;;3.93;2.70;;;14.40;99.90;;;;;;5094861;28;20622;-63
2022/12/26 12:42:10;;;;;;;3.60;2.50;;;14.30;99.90;;;;;;5094368;28;20255;-63
2022/12/26 12:44:51;;;;;;;2.93;2.13;;;14.20;99.90;;;;;;5095155;28;20299;-63
2022/12/26 12:47:27;;;;;;;6.00;2.63;;;14.10;99.90;;;;;;5094124;28;20270;-64
2022/12/26 12:50:04;;;;;;;3.77;2.03;;;14.00;99.90;;;;;;5094821;28;20196;-65
2022/12/26 12:52:43;;;;;;;6.90;4.90;;;14.00;99.90;;;;;;5094595;28;20232;-63
2022/12/26 12:55:32;;;;;;;5.33;3.20;;;14.00;99.90;;;;;;5094502;28;20239;-63
2022/12/26 12:58:07;;;;;;;3.40;2.63;;;13.90;99.90;;;;;;5093000;28;20224;-63
2022/12/26 13:00:41;;;;;;;4.13;2.73;;;13.90;99.90;;;;;;5094524;28;20260;-62
2022/12/26 13:03:12;;;;;;;2.77;2.33;;;13.80;99.90;;;;;;5094371;28;20608;-63
2022/12/26 13:05:45;;;;;;;5.77;2.80;;;13.90;99.90;;;;;;5093853;28;20205;-64
2022/12/26 13:08:16;;;;;;;3.30;1.90;;;13.90;99.90;;;;;;5094311;28;20204;-63
2022/12/26 13:10:49;;;;;;;4.53;2.20;;;13.90;99.90;;;;;;5093909;28;20589;-63
2022/12/26 13:13:24;;;;;;;3.33;2.67;;;13.90;99.90;;;;;;5094230;28;20598;-63
2022/12/26 13:15:55;;;;;;;3.70;2.23;;;13.80;99.90;;;;;;5093943;28;20629;-63
2022/12/26 13:18:24;;;;;;;2.97;2.40;;;13.70;99.90;;;;;;5094036;28;20227;-63
2022/12/26 13:20:54;;;;;;;2.60;2.30;;;13.70;99.90;;;;;;5093801;28;20230;-63
2022/12/26 13:26:16;;;;;;;4.13;2.03;;;13.60;99.90;;;;;;5093453;28;20253;-64
2022/12/26 13:28:57;;;;;;;3.50;2.40;;;13.60;99.90;;;;;;5093925;28;20208;-63
2022/12/26 13:31:25;;;;;;;2.53;2.10;;;13.60;99.90;;;;;;5114159;22;20231;-59
2022/12/26 13:33:52;;;;;;;3.93;1.90;;;13.60;99.90;;;;;;5086736;28;20255;-59
2022/12/26 13:36:38;;;;;;;2.33;1.83;;;13.50;99.90;;;;;;5096996;28;20294;-59
2022/12/26 13:39:37;;;;;;;2.03;1.70;;;13.50;99.90;;;;;;5097188;28;20259;-60
2022/12/26 13:45:57;;;;;;;14.33;8.73;;;13.50;99.90;;;;;;5095327;28;20203;-60
2022/12/26 13:49:00;;;;;;;1.60;1.37;;;13.50;99.90;;;;;;5094196;28;20200;-59
2022/12/26 13:51:48;;;;;;;2.50;1.40;;;13.50;99.90;;;;;;5094101;28;20224;-60
2022/12/26 13:54:17;;;;;;;1.40;1.10;;;13.50;99.90;;;;;;5093161;28;20205;-60
2022/12/26 13:57:27;;;;;;;4.13;2.03;;;13.60;99.90;;;;;;5093008;28;20231;-60
2022/12/26 14:00:14;;;;;;;1.50;1.37;;;13.60;99.90;;;;;;5093245;28;20277;-60
2022/12/26 14:03:23;;;;;;;2.43;1.40;;;13.60;99.90;;;;;;5092915;28;20224;-60
2022/12/26 14:06:15;;;;;;;3.23;2.20;;;13.60;99.90;;;;;;5092940;28;20292;-60
2022/12/26 14:09:02;;;;;;;2.60;1.90;;;13.70;99.90;;;;;;5087964;28;20667;-60
2022/12/26 14:11:46;;;;;;;1.70;1.20;;;13.70;99.90;;;;;;5093208;28;20251;-60
2022/12/26 14:14:24;;;;;;;1.60;1.50;;;13.70;99.90;;;;;;5095313;28;20273;-60
2022/12/26 14:16:58;;;;;;;0.93;0.83;;;13.70;99.90;;;;;;5094147;28;20220;-60
2022/12/26 14:19:42;;;;;;;3.27;1.80;;;13.60;99.90;;;;;;5095497;28;20716;-60
2022/12/26 14:22:18;;;;;;;1.50;0.80;;;13.60;99.90;;;;;;5097069;28;20228;-59
2022/12/26 14:25:13;;;;;;;3.57;1.73;;;13.50;99.90;;;;;;5095616;28;20215;-59
2022/12/26 14:27:47;;;;;;;1.63;1.10;;;13.60;99.90;;;;;;5095032;28;20200;-66
2022/12/26 14:30:23;;;;;;;1.63;1.50;;;13.70;99.90;;;;;;5093591;28;20287;-59
2022/12/26 14:33:13;;;;;;;6.13;3.33;;;13.70;99.90;;;;;;5095348;28;20266;-59
2022/12/26 14:35:46;;;;;;;2.17;1.60;;;13.70;99.90;;;;;;5094733;28;20212;-60
2022/12/26 14:38:27;;;;;;;1.50;1.40;;;13.70;99.90;;;;;;5095616;28;20221;-59
2022/12/26 14:41:01;;;;;;;2.90;2.40;;;13.70;99.90;;;;;;5094714;28;20200;-59
2022/12/26 14:43:32;;;;;;;1.70;1.37;;;13.70;99.90;;;;;;5095298;28;20207;-62
2022/12/26 14:46:00;;;;;;;1.60;1.30;;;13.60;99.90;;;;;;5095352;28;20204;-59
2022/12/26 14:48:51;;;;;;;2.90;2.10;;;13.60;99.90;;;;;;5095081;28;20200;-59
2022/12/26 14:51:40;;;;;;;2.73;1.57;;;13.60;99.90;;;;;;5095376;28;20212;-59
2022/12/26 14:54:38;;;;;;;2.20;1.60;;;13.50;99.90;;;;;;5096201;28;20261;-60
2022/12/26 14:57:42;;;;;;;2.57;1.50;;;13.50;99.90;;;;;;5095843;28;20691;-60
2022/12/26 15:00:38;;;;;;;2.40;2.07;;;13.60;99.90;;;;;;5096275;28;20242;-59
2022/12/26 15:03:39;;;;;;;3.47;1.87;;;13.60;99.90;;;;;;5096206;28;20224;-60
2022/12/26 15:06:43;;;;;;;1.50;1.40;;;13.50;99.90;;;;;;5095965;28;20236;-59
2022/12/26 15:09:29;;;;;;;2.03;1.47;;;13.50;99.90;;;;;;5094899;28;20621;-59
2022/12/26 15:12:35;;;;;;;1.97;1.43;;;13.50;99.90;;;;;;5096315;28;20219;-59
2022/12/26 15:15:31;;;;;;;2.03;1.50;;;13.40;99.90;;;;;;5081335;28;20210;-59
2022/12/26 15:18:30;;;;;;;1.93;1.50;;;13.40;99.90;;;;;;5093930;28;20224;-59
2022/12/26 15:21:16;;;;;;;1.70;1.40;;;13.40;99.90;;;;;;5095647;28;20212;-59
2022/12/26 15:24:19;;;;;;;3.53;2.43;;;13.40;99.90;;;;;;5097895;28;20218;-59
2022/12/26 15:27:06;;;;;;;2.43;1.83;;;13.50;99.90;;;;;;5093104;28;20235;-59